Time;durP1;ratioP1;P1;durP2;ratioP2;P2;SDS_P1;SDS_P2;PMS_P1;PMS_P2;Temp;Humidity;BMP_temperature;BMP_pressure;BME280_temperature;BME280_humidity;BME280_pressure;Samples;Min_cycle;Max_cycle;Signal;HPM_P1;HPM_P2
2022/06/23 00:02:06;;;;;;;17.70;11.63;;;11.50;99.90;10.90;100242;;;;566423;250;24092;-81
2022/06/23 00:04:39;;;;;;;21.60;11.90;;;11.50;99.90;10.90;100248;;;;574336;247;24054;-80
2022/06/23 00:07:06;;;;;;;17.20;11.17;;;11.50;99.90;10.90;100244;;;;566616;250;24083;-80
2022/06/23 00:09:46;;;;;;;20.00;13.17;;;11.50;99.90;10.80;100251;;;;573933;247;24058;-80
2022/06/23 00:12:26;;;;;;;23.10;12.07;;;11.50;99.90;10.80;100250;;;;574851;250;24096;-82
2022/06/23 00:14:57;;;;;;;17.30;12.83;;;11.50;99.90;10.80;100256;;;;565875;250;25082;-81
2022/06/23 00:17:34;;;;;;;19.50;11.53;;;11.50;99.90;10.80;100245;;;;560986;250;24182;-81
2022/06/23 00:20:05;;;;;;;19.97;12.57;;;11.40;99.90;10.80;100239;;;;574670;247;24093;-81
2022/06/23 00:22:35;;;;;;;19.13;12.43;;;11.40;99.90;10.70;100242;;;;554273;250;24093;-82
2022/06/23 00:25:00;;;;;;;28.83;19.40;;;11.40;99.90;10.70;100239;;;;569542;250;35067;-80
2022/06/23 00:27:28;;;;;;;24.33;15.07;;;11.40;99.90;10.70;100243;;;;574008;248;24133;-82
2022/06/23 00:30:02;;;;;;;15.40;11.60;;;11.40;99.90;10.70;100239;;;;564985;250;24057;-81
2022/06/23 00:32:33;;;;;;;21.27;12.77;;;11.40;99.90;10.70;100251;;;;565423;250;24068;-82
2022/06/23 00:34:58;;;;;;;22.57;13.20;;;11.40;99.90;10.70;100248;;;;573987;247;24107;-81
2022/06/23 00:37:29;;;;;;;20.40;13.20;;;11.40;99.90;10.70;100250;;;;565039;250;24061;-80
2022/06/23 00:40:05;;;;;;;21.90;14.13;;;11.40;99.90;10.70;100255;;;;565670;250;24113;-82
2022/06/23 00:42:58;;;;;;;18.07;11.43;;;11.30;99.90;10.70;100252;;;;574710;247;24105;-80
2022/06/23 00:45:43;;;;;;;15.80;11.10;;;11.30;99.90;10.60;100256;;;;574335;249;24043;-82
2022/06/23 00:48:36;;;;;;;19.03;11.03;;;11.30;99.90;10.60;100252;;;;566010;250;24101;-81
2022/06/23 00:51:28;;;;;;;20.73;12.23;;;11.30;99.90;10.60;100249;;;;574061;246;24135;-81
2022/06/23 00:54:24;;;;;;;17.73;10.93;;;11.30;99.90;10.60;100258;;;;565269;250;24068;-80
2022/06/23 00:57:04;;;;;;;17.47;11.73;;;11.20;99.90;10.60;100253;;;;574440;247;25125;-82
2022/06/23 00:59:37;;;;;;;18.70;11.57;;;11.20;99.90;10.60;100246;;;;565821;250;24085;-82
2022/06/23 01:02:14;;;;;;;18.37;11.67;;;11.20;99.90;10.60;100247;;;;574905;248;24087;-81
2022/06/23 01:04:56;;;;;;;20.77;12.00;;;11.20;99.90;10.60;100239;;;;575411;247;24053;-81
2022/06/23 01:07:31;;;;;;;15.73;11.83;;;11.20;99.90;10.60;100237;;;;571624;250;24045;-80
2022/06/23 01:09:58;;;;;;;20.83;11.87;;;11.20;99.90;10.60;100240;;;;574329;250;24101;-80
2022/06/23 01:12:42;;;;;;;21.13;12.73;;;11.20;99.90;10.50;100243;;;;573995;247;24064;-80
2022/06/23 01:15:22;;;;;;;19.57;12.80;;;11.20;99.90;10.50;100250;;;;564912;250;24053;-79
2022/06/23 01:17:50;;;;;;;15.43;10.30;;;11.10;99.90;10.50;100254;;;;565831;250;24071;-81
2022/06/23 01:20:30;;;;;;;19.73;12.83;;;11.10;99.90;10.50;100253;;;;571374;249;24162;-81
2022/06/23 01:23:15;;;;;;;18.70;12.37;;;11.10;99.90;10.40;100252;;;;566149;250;24070;-80
2022/06/23 01:25:52;;;;;;;23.23;12.00;;;11.10;99.90;10.40;100250;;;;574204;248;24119;-82
2022/06/23 01:28:22;;;;;;;26.47;12.90;;;11.00;99.90;10.40;100258;;;;565764;250;24150;-81
2022/06/23 01:30:56;;;;;;;21.37;13.80;;;11.00;99.90;10.40;100248;;;;566054;250;24067;-80
2022/06/23 01:33:27;;;;;;;24.50;13.30;;;11.00;99.90;10.40;100253;;;;566219;250;24071;-80
2022/06/23 01:36:13;;;;;;;21.20;12.77;;;11.00;99.90;10.30;100261;;;;574341;247;24089;-81
2022/06/23 01:39:01;;;;;;;20.03;12.20;;;11.00;99.90;10.30;100261;;;;566038;250;24061;-80
2022/06/23 01:41:32;;;;;;;21.97;13.10;;;11.00;99.90;10.30;100257;;;;574526;249;24085;-81
2022/06/23 01:44:12;;;;;;;24.07;13.50;;;10.90;99.90;10.30;100271;;;;573974;247;24218;-81
2022/06/23 01:46:40;;;;;;;23.70;12.37;;;10.90;99.90;10.20;100268;;;;565692;250;24034;-80
2022/06/23 01:49:23;;;;;;;21.70;12.50;;;10.90;99.90;10.20;100267;;;;574020;246;24125;-82
2022/06/23 01:51:53;;;;;;;19.43;12.17;;;10.90;99.90;10.30;100266;;;;565347;250;24061;-81
2022/06/23 01:54:21;;;;;;;19.33;12.53;;;10.90;99.90;10.30;100263;;;;564827;250;24069;-82
2022/06/23 01:56:51;;;;;;;20.80;11.73;;;10.90;99.90;10.30;100263;;;;574215;250;24079;-81
2022/06/23 01:59:50;;;;;;;25.10;13.50;;;11.00;99.90;10.30;100269;;;;565077;250;24075;-81
2022/06/23 02:02:21;;;;;;;22.47;13.57;;;11.00;99.90;10.30;100267;;;;565131;250;24095;-82
2022/06/23 02:05:01;;;;;;;22.43;13.30;;;11.00;99.90;10.30;100270;;;;558998;250;24040;-82
2022/06/23 02:07:40;;;;;;;19.73;12.73;;;10.90;99.90;10.30;100270;;;;574056;250;24089;-80
2022/06/23 02:10:33;;;;;;;21.53;13.53;;;10.90;99.90;10.20;100269;;;;574350;247;24091;-81
2022/06/23 02:13:10;;;;;;;18.83;11.90;;;10.90;99.90;10.20;100257;;;;575071;248;24072;-81
2022/06/23 02:15:59;;;;;;;20.27;13.20;;;10.90;99.90;10.20;100259;;;;575719;249;24108;-81
2022/06/23 02:18:33;;;;;;;19.40;11.63;;;10.80;99.90;10.20;100257;;;;566654;250;24073;-81
2022/06/23 02:21:20;;;;;;;19.70;12.33;;;10.90;99.90;10.20;100270;;;;566556;250;24079;-81
2022/06/23 02:23:54;;;;;;;17.17;11.83;;;10.90;99.90;10.30;100275;;;;575053;250;24085;-82
2022/06/23 02:26:43;;;;;;;22.53;12.97;;;10.90;99.90;10.30;100274;;;;575042;247;24052;-81
2022/06/23 02:29:14;;;;;;;22.20;12.57;;;10.90;99.90;10.30;100267;;;;574981;250;24085;-80
2022/06/23 02:31:56;;;;;;;16.97;11.43;;;10.90;99.90;10.30;100274;;;;573696;247;24048;-81
2022/06/23 02:34:37;;;;;;;19.07;11.87;;;10.90;99.90;10.30;100266;;;;574558;247;24079;-81
2022/06/23 02:37:51;;;;;;;17.53;11.47;;;10.90;99.90;10.30;100281;;;;565803;250;24062;-80
2022/06/23 02:40:26;;;;;;;17.73;11.73;;;10.90;99.90;10.40;100274;;;;574262;247;24083;-81
2022/06/23 02:42:50;;;;;;;27.20;13.40;;;11.00;99.90;10.40;100276;;;;565730;250;24147;-82
2022/06/23 02:45:54;;;;;;;24.67;13.33;;;11.00;99.90;10.40;100269;;;;565448;250;24089;-81
2022/06/23 02:48:40;;;;;;;19.60;11.83;;;11.10;99.90;10.50;100278;;;;550921;250;24066;-80
2022/06/23 02:51:29;;;;;;;18.87;11.50;;;11.10;99.90;10.50;100279;;;;564838;250;24112;-81
2022/06/23 02:54:11;;;;;;;18.57;11.93;;;11.20;99.90;10.60;100284;;;;574174;250;24086;-82
2022/06/23 02:56:54;;;;;;;20.50;12.30;;;11.20;99.90;10.70;100292;;;;574115;250;24112;-80
2022/06/23 02:59:53;;;;;;;24.60;12.73;;;11.30;99.90;10.70;100302;;;;565580;250;24100;-81
2022/06/23 03:02:43;;;;;;;21.13;11.80;;;11.40;99.90;10.80;100293;;;;574486;250;24089;-81
2022/06/23 03:05:44;;;;;;;19.13;12.03;;;11.40;99.90;10.90;100300;;;;574319;250;24046;-81
2022/06/23 03:08:43;;;;;;;19.37;12.13;;;11.50;99.90;11.00;100296;;;;565834;250;24076;-82
2022/06/23 03:11:17;;;;;;;16.97;11.27;;;11.60;99.90;11.00;100299;;;;573962;248;24046;-82
2022/06/23 03:13:51;;;;;;;20.87;11.93;;;12.00;99.90;11.50;100305;;;;565468;250;24086;-81
2022/06/23 03:16:31;;;;;;;15.60;11.47;;;12.00;99.90;12.30;100310;;;;564208;253;24138;-81
2022/06/23 03:19:02;;;;;;;16.57;12.23;;;12.70;99.90;13.10;100308;;;;563327;253;24392;-82
2022/06/23 03:21:42;;;;;;;16.63;13.17;;;14.30;99.90;13.90;100311;;;;563032;255;24168;-80
2022/06/23 03:24:32;;;;;;;19.40;14.33;;;14.20;99.90;14.70;100319;;;;549329;253;24173;-82
2022/06/23 03:27:27;;;;;;;17.90;13.03;;;15.10;99.90;15.40;100325;;;;564607;253;24174;-80
2022/06/23 03:29:57;;;;;;;15.93;12.23;;;15.90;99.90;16.20;100332;;;;556386;254;24134;-81
2022/06/23 03:32:28;;;;;;;18.03;13.23;;;16.80;99.90;17.00;100330;;;;564674;250;24084;-80
2022/06/23 03:35:15;;;;;;;17.77;12.50;;;18.40;99.90;17.70;100332;;;;564443;252;24160;-81
2022/06/23 03:38:04;;;;;;;15.13;11.13;;;18.30;99.90;18.20;100342;;;;555414;254;24143;-80
2022/06/23 03:43:39;;;;;;;11.67;9.63;;;19.70;99.90;19.70;100334;;;;574859;250;24085;-80
2022/06/23 03:46:19;;;;;;;11.17;8.60;;;20.50;99.90;20.40;100337;;;;574633;250;24066;-81
2022/06/23 03:48:52;;;;;;;13.03;7.77;;;21.10;99.90;21.00;100337;;;;563516;253;24159;-81
2022/06/23 03:51:32;;;;;;;11.20;7.43;;;21.90;99.90;21.60;100335;;;;574568;250;23110;-82
2022/06/23 03:54:06;;;;;;;10.50;8.00;;;22.50;99.90;22.30;100339;;;;555500;255;24111;-80
2022/06/23 03:56:43;;;;;;;10.93;7.40;;;23.10;99.90;22.90;100343;;;;565368;250;24133;-81
2022/06/23 03:59:22;;;;;;;9.37;7.67;;;23.80;99.90;23.60;100347;;;;555599;255;24098;-80
2022/06/23 04:02:05;;;;;;;8.60;7.63;;;24.50;99.90;24.30;100347;;;;565560;250;23048;-81
2022/06/23 04:04:39;;;;;;;11.43;7.73;;;25.10;99.90;25.00;100343;;;;563091;255;23126;-81
2022/06/23 04:07:28;;;;;;;10.17;7.10;;;25.90;99.90;25.70;100346;;;;573312;247;23123;-81
2022/06/23 04:10:05;;;;;;;7.43;6.60;;;26.60;99.90;26.30;100352;;;;554787;255;23113;-82
2022/06/23 04:12:34;;;;;;;9.60;7.57;;;27.80;97.40;26.90;100351;;;;574398;250;23052;-81
2022/06/23 04:15:08;;;;;;;8.93;7.33;;;27.70;97.30;27.40;100351;;;;563383;253;23264;-81
2022/06/23 04:17:40;;;;;;;9.75;6.85;;;28.30;94.40;27.90;100349;;;;574344;247;23071;-82
2022/06/23 04:20:16;;;;;;;7.53;6.70;;;29.00;91.50;28.40;100358;;;;563169;254;24170;-82
2022/06/23 04:22:49;;;;;;;7.90;6.32;;;29.40;87.60;29.00;100361;;;;565956;250;24058;-82
2022/06/23 04:25:22;;;;;;;10.52;6.35;;;29.90;83.40;29.60;100354;;;;555294;255;23114;-81
2022/06/23 04:27:56;;;;;;;7.55;6.00;;;30.60;79.70;30.20;100369;;;;565593;250;23066;-81
2022/06/23 04:30:27;;;;;;;9.02;5.93;;;31.30;75.20;30.70;100366;;;;563438;255;24140;-81
2022/06/23 04:32:54;;;;;;;7.12;5.87;;;31.80;71.90;31.30;100381;;;;570876;250;23067;-82
2022/06/23 04:35:35;;;;;;;10.77;6.28;;;32.30;68.50;31.80;100388;;;;555122;255;24209;-81
2022/06/23 04:38:12;;;;;;;8.98;5.22;;;33.40;63.30;32.40;100387;;;;574720;248;24074;-82
2022/06/23 04:40:42;;;;;;;10.52;5.80;;;33.40;63.30;32.80;100393;;;;556441;254;23242;-81
2022/06/23 04:43:28;;;;;;;8.40;5.10;;;34.00;60.80;33.40;100400;;;;566728;250;23065;-82
2022/06/23 04:46:17;;;;;;;6.05;5.35;;;34.50;59.20;33.90;100399;;;;556088;254;23136;-82
2022/06/23 04:49:00;;;;;;;9.73;4.87;;;35.10;57.20;34.30;100399;;;;566601;250;23041;-80
2022/06/23 04:51:39;;;;;;;11.45;5.35;;;35.50;55.70;34.70;100405;;;;555530;254;23152;-82
2022/06/23 04:54:10;;;;;;;7.22;5.22;;;35.90;54.50;35.40;100401;;;;574201;248;23056;-82
2022/06/23 04:56:49;;;;;;;6.55;5.90;;;36.50;53.70;35.90;100414;;;;555590;255;23160;-82
2022/06/23 04:59:35;;;;;;;5.50;5.03;;;37.20;52.30;36.70;100412;;;;565708;250;24096;-82
2022/06/23 05:02:03;;;;;;;11.68;4.85;;;38.00;51.00;37.30;100417;;;;563525;253;23169;-83
2022/06/23 05:04:31;;;;;;;36.83;6.53;;;38.60;49.70;37.70;100423;;;;572563;250;23056;-82
2022/06/23 05:06:59;;;;;;;9.02;4.87;;;38.90;49.10;38.10;100432;;;;554956;255;23177;-81
2022/06/23 05:09:27;;;;;;;7.82;5.28;;;39.40;47.80;38.50;100429;;;;565720;250;24119;-81
2022/06/23 05:12:01;;;;;;;7.72;4.15;;;39.80;46.90;39.10;100430;;;;555317;255;23132;-81
2022/06/23 05:14:56;;;;;;;7.28;4.15;;;40.40;45.90;39.80;100443;;;;560612;250;34973;-81
2022/06/23 05:17:24;;;;;;;6.72;4.45;;;41.00;44.60;40.10;100443;;;;554957;255;23150;-83
2022/06/23 05:19:58;;;;;;;5.10;4.32;;;41.40;43.90;40.70;100442;;;;573809;250;23162;-81
2022/06/23 05:22:28;;;;;;;13.23;4.50;;;41.90;43.10;41.20;100449;;;;563376;253;23114;-82
2022/06/23 05:24:56;;;;;;;7.68;3.95;;;42.40;42.50;41.50;100450;;;;565713;250;23041;-80
2022/06/23 05:27:27;;;;;;;3.42;3.10;;;42.80;42.20;41.90;100449;;;;555179;255;23150;-81
2022/06/23 05:30:24;;;;;;;7.45;3.60;;;43.10;41.20;42.30;100442;;;;574010;247;23055;-81
2022/06/23 05:32:50;;;;;;;4.22;2.92;;;43.60;41.00;42.90;100447;;;;563285;252;23168;-82
2022/06/23 05:35:21;;;;;;;6.82;3.85;;;44.00;39.00;43.10;100448;;;;563543;255;23223;-82
2022/06/23 05:37:52;;;;;;;3.90;3.53;;;44.30;38.80;43.10;100450;;;;574106;250;23057;-82
2022/06/23 05:40:39;;;;;;;4.15;3.40;;;44.30;38.80;43.50;100454;;;;563493;255;23118;-82
2022/06/23 05:43:08;;;;;;;4.85;3.12;;;45.00;38.30;44.10;100464;;;;574339;250;23056;-81
2022/06/23 05:45:41;;;;;;;3.37;2.90;;;45.00;38.30;44.40;100452;;;;563660;253;23130;-82
2022/06/23 05:48:09;;;;;;;3.05;2.42;;;45.40;37.30;44.90;100456;;;;575256;248;23044;-81
2022/06/23 05:50:47;;;;;;;3.53;2.60;;;46.20;36.90;45.30;100454;;;;564229;250;23135;-80
2022/06/23 05:53:23;;;;;;;4.47;2.53;;;46.10;36.10;45.80;100452;;;;574666;250;23076;-82
2022/06/23 05:56:06;;;;;;;3.83;2.85;;;46.60;35.70;46.00;100461;;;;555666;254;23149;-81
2022/06/23 05:58:52;;;;;;;4.57;2.90;;;46.80;34.90;46.20;100448;;;;574710;250;23076;-81
2022/06/23 06:01:26;;;;;;;5.80;2.65;;;47.10;34.70;46.50;100455;;;;563783;253;23112;-81
2022/06/23 06:04:11;;;;;;;3.72;2.95;;;47.40;34.20;46.90;100463;;;;574179;248;23065;-83
2022/06/23 06:06:40;;;;;;;5.80;2.78;;;48.10;34.40;47.40;100461;;;;563379;253;24155;-84
2022/06/23 06:11:55;;;;;;;6.50;2.60;;;48.30;32.80;47.40;100465;;;;555846;255;23159;-84
2022/06/23 06:14:23;;;;;;;4.03;2.95;;;48.30;32.90;47.50;100466;;;;574236;250;23111;-81
2022/06/23 06:16:52;;;;;;;6.53;3.05;;;48.40;33.40;47.60;100471;;;;563503;253;23136;-85
2022/06/23 06:19:20;;;;;;;3.37;2.95;;;48.70;33.30;48.10;100473;;;;565445;250;23104;-81
2022/06/23 06:21:49;;;;;;;4.12;2.70;;;49.00;33.80;48.50;100475;;;;563623;252;23147;-80
2022/06/23 06:24:35;;;;;;;6.00;2.58;;;49.00;33.00;48.50;100475;;;;574074;250;23060;-82
2022/06/23 06:27:04;;;;;;;4.00;2.53;;;49.40;32.90;48.90;100480;;;;555034;255;23129;-81
2022/06/23 06:29:34;;;;;;;3.65;2.50;;;49.40;32.40;49.20;100479;;;;574025;250;24156;-80
2022/06/23 06:32:22;;;;;;;3.42;2.62;;;49.90;32.10;49.50;100475;;;;563404;253;23130;-80
2022/06/23 06:34:55;;;;;;;4.10;3.03;;;49.90;32.10;49.70;100488;;;;573919;250;23078;-79
2022/06/23 06:37:23;;;;;;;4.70;2.50;;;50.10;31.90;49.60;100498;;;;563409;255;23120;-82
2022/06/23 06:39:51;;;;;;;3.35;2.70;;;50.10;31.30;49.70;100493;;;;574375;247;23056;-80
2022/06/23 06:42:19;;;;;;;5.80;2.58;;;50.20;31.40;49.90;100505;;;;563645;254;23175;-81
2022/06/23 06:44:47;;;;;;;3.15;2.45;;;50.30;31.20;49.90;100502;;;;574254;250;23069;-80
2022/06/23 06:47:17;;;;;;;4.70;2.60;;;50.30;31.10;50.10;100503;;;;555015;255;23176;-82
2022/06/23 06:49:44;;;;;;;5.18;2.33;;;50.50;31.10;50.30;100508;;;;565855;250;23060;-82
2022/06/23 06:52:12;;;;;;;20.92;4.20;;;50.50;31.00;50.10;100507;;;;563421;251;23170;-81
2022/06/23 06:54:46;;;;;;;3.12;2.60;;;50.40;31.00;50.10;100513;;;;574030;249;23088;-80
2022/06/23 06:57:14;;;;;;;5.93;2.70;;;50.40;30.70;50.30;100510;;;;563127;253;23173;-81
2022/06/23 06:59:50;;;;;;;7.80;2.85;;;50.60;30.00;50.20;100498;;;;574269;248;23057;-79
2022/06/23 07:02:34;;;;;;;8.00;3.53;;;50.70;30.00;50.50;100501;;;;564392;254;23129;-81
2022/06/23 07:05:00;;;;;;;2.53;2.17;;;50.90;30.50;50.70;100497;;;;575258;248;23135;-81
2022/06/23 07:07:28;;;;;;;3.80;2.20;;;51.00;30.00;50.90;100499;;;;555019;254;23118;-81
2022/06/23 07:09:57;;;;;;;5.93;2.72;;;51.20;30.10;51.20;100503;;;;574321;247;23079;-81
2022/06/23 07:12:33;;;;;;;5.15;2.53;;;51.50;30.00;51.80;100506;;;;563890;253;23151;-81
2022/06/23 07:15:09;;;;;;;6.12;2.60;;;52.00;29.70;51.90;100511;;;;565574;250;23065;-81
2022/06/23 07:18:04;;;;;;;6.35;2.75;;;52.40;29.30;51.90;100512;;;;554292;255;23141;-81
2022/06/23 07:20:50;;;;;;;3.92;2.55;;;52.30;29.30;51.80;100510;;;;566320;250;23068;-81
2022/06/23 07:23:46;;;;;;;3.58;2.25;;;52.10;29.40;51.70;100522;;;;552352;255;23134;-81
2022/06/23 07:26:40;;;;;;;3.05;2.67;;;51.90;29.80;51.90;100518;;;;574340;247;23107;-80
2022/06/23 07:29:20;;;;;;;5.05;2.42;;;52.10;29.00;52.20;100522;;;;563521;255;23126;-81
2022/06/23 07:32:12;;;;;;;7.00;2.90;;;52.30;29.40;52.50;100527;;;;565755;250;23083;-81
2022/06/23 07:34:41;;;;;;;2.85;2.62;;;52.60;29.20;52.40;100525;;;;563826;253;24175;-81
2022/06/23 07:37:30;;;;;;;4.60;2.87;;;52.50;29.10;52.40;100520;;;;573734;250;23103;-81
2022/06/23 07:39:57;;;;;;;2.67;2.47;;;52.70;29.10;52.50;100535;;;;560498;254;23122;-81
2022/06/23 07:42:46;;;;;;;4.15;2.70;;;52.80;28.60;52.40;100524;;;;568636;248;34938;-81
2022/06/23 07:45:18;;;;;;;3.28;2.60;;;52.50;29.60;52.00;100529;;;;562989;254;23137;-82
2022/06/23 07:47:49;;;;;;;5.28;2.65;;;52.30;29.30;52.00;100527;;;;573979;247;23102;-80
2022/06/23 07:50:14;;;;;;;3.53;2.75;;;52.30;29.30;52.10;100529;;;;553269;255;23156;-81
2022/06/23 07:52:42;;;;;;;3.50;3.00;;;52.30;29.20;52.20;100531;;;;574079;250;23138;-81
2022/06/23 07:55:10;;;;;;;3.08;2.53;;;52.20;29.10;52.40;100532;;;;563466;253;23141;-82
2022/06/23 07:57:38;;;;;;;3.05;2.67;;;52.50;29.20;52.70;100527;;;;565103;250;23102;-82
2022/06/23 08:00:08;;;;;;;5.03;2.85;;;52.80;29.30;52.80;100516;;;;554904;255;24181;-82
2022/06/23 08:02:40;;;;;;;2.92;2.65;;;52.80;28.70;52.90;100516;;;;565609;250;23091;-80
2022/06/23 08:05:17;;;;;;;4.15;2.45;;;53.30;28.20;52.80;100522;;;;573675;249;23126;-80
2022/06/23 08:07:45;;;;;;;3.03;2.35;;;53.20;28.10;52.60;100516;;;;565241;250;23096;-82
2022/06/23 08:10:12;;;;;;;3.42;2.78;;;53.20;28.00;53.10;100524;;;;563486;253;23138;-81
2022/06/23 08:12:59;;;;;;;2.67;2.45;;;53.50;28.40;53.30;100522;;;;562094;254;23140;-82
2022/06/23 08:18:30;;;;;;;10.25;5.53;;;54.10;28.80;52.70;100527;;;;564813;251;23124;-79
2022/06/23 08:21:12;;;;;;;13.73;5.00;;;53.60;29.30;51.30;100525;;;;575824;247;23085;-80
2022/06/23 08:23:52;;;;;;;9.57;5.12;;;52.80;29.60;50.20;100541;;;;557092;254;23123;-81
2022/06/23 08:26:23;;;;;;;10.82;5.07;;;51.70;30.00;49.70;100537;;;;565612;250;23090;-83
2022/06/23 08:28:51;;;;;;;10.18;5.10;;;51.00;30.70;49.50;100543;;;;555696;255;23147;-81
2022/06/23 08:31:19;;;;;;;13.82;5.45;;;50.60;30.90;49.10;100545;;;;574138;247;23201;-81
2022/06/23 08:33:46;;;;;;;11.23;4.90;;;50.20;31.40;48.90;100540;;;;563840;253;23125;-80
2022/06/23 08:36:15;;;;;;;9.35;5.05;;;49.90;31.50;48.60;100547;;;;574409;250;23056;-82
2022/06/23 08:39:01;;;;;;;10.48;4.68;;;49.60;31.70;48.70;100542;;;;563852;252;24148;-82
2022/06/23 08:41:40;;;;;;;12.13;5.03;;;49.60;32.00;48.80;100554;;;;565958;250;23124;-80
2022/06/23 08:44:18;;;;;;;9.15;6.05;;;49.60;32.00;48.90;100552;;;;563685;255;23185;-83
2022/06/23 08:47:06;;;;;;;18.58;7.18;;;49.60;32.10;49.30;100540;;;;564553;254;23108;-83
2022/06/23 08:49:39;;;;;;;10.13;5.30;;;49.90;31.90;48.30;100542;;;;574256;246;23048;-82
2022/06/23 08:52:28;;;;;;;6.82;5.00;;;49.70;31.60;48.10;100543;;;;563838;253;23180;-82
2022/06/23 08:55:19;;;;;;;14.02;5.85;;;49.40;31.70;47.00;100552;;;;573832;247;23077;-84
2022/06/23 08:57:56;;;;;;;9.55;5.20;;;48.70;32.40;46.90;100555;;;;547936;258;23238;-83
2022/06/23 09:00:39;;;;;;;6.87;5.53;;;48.10;32.90;47.10;100561;;;;575037;244;24111;-82
2022/06/23 09:03:10;;;;;;;10.35;5.07;;;48.20;32.50;47.20;100562;;;;584208;243;23208;-76
2022/06/23 09:05:50;;;;;;;10.35;5.20;;;48.20;32.50;47.40;100557;;;;564537;253;23136;-77
2022/06/23 09:08:30;;;;;;;9.13;5.57;;;48.70;32.30;47.40;100558;;;;553616;254;35306;-77
2022/06/23 09:11:26;;;;;;;10.43;4.72;;;48.70;32.30;47.40;100558;;;;566288;251;23098;-78
2022/06/23 09:14:50;;;;;;;13.55;5.05;;;48.80;32.20;47.70;100554;;;;549812;254;23138;-77
2022/06/23 09:17:52;;;;;;;11.50;4.78;;;49.00;32.20;47.80;100553;;;;564589;254;23115;-82
2022/06/23 09:20:50;;;;;;;10.02;5.40;;;48.90;32.50;48.20;100553;;;;562559;253;23170;-80
2022/06/23 09:23:45;;;;;;;13.35;4.95;;;49.20;32.00;48.30;100557;;;;556689;254;23171;-77
2022/06/23 09:26:38;;;;;;;14.65;5.97;;;49.50;31.80;48.30;100571;;;;565762;253;23119;-79
2022/06/23 09:29:17;;;;;;;9.95;4.80;;;49.60;31.40;48.50;100565;;;;557275;254;23139;-80
2022/06/23 09:31:58;;;;;;;7.78;5.07;;;49.60;31.90;49.00;100568;;;;565350;254;23171;-78
2022/06/23 09:34:48;;;;;;;14.18;5.20;;;50.00;31.00;48.60;100567;;;;554420;256;23178;-77
2022/06/23 09:37:59;;;;;;;6.68;5.07;;;50.20;30.50;47.50;100569;;;;561384;252;23159;-80
2022/06/23 09:40:51;;;;;;;5.95;5.03;;;49.60;30.70;47.00;100568;;;;565391;254;23122;-79
2022/06/23 09:43:24;;;;;;;11.48;5.43;;;49.10;31.00;46.60;100580;;;;546155;255;23185;-78
2022/06/23 09:46:04;;;;;;;7.45;5.12;;;48.50;31.50;46.00;100582;;;;537742;263;24223;-79
2022/06/23 09:48:55;;;;;;;9.55;4.97;;;48.00;32.10;45.80;100582;;;;538042;263;23235;-81
2022/06/23 09:51:36;;;;;;;9.98;5.93;;;47.70;32.50;45.70;100594;;;;541205;259;23147;-85
2022/06/23 09:54:09;;;;;;;10.88;5.43;;;47.60;32.70;45.90;100594;;;;545424;261;23181;-80
2022/06/23 09:57:01;;;;;;;7.82;5.25;;;47.60;32.90;46.10;100596;;;;539793;259;23170;-81
2022/06/23 09:59:50;;;;;;;7.20;5.53;;;47.80;32.70;45.50;100589;;;;545107;259;23164;-79
2022/06/23 10:02:47;;;;;;;5.65;5.18;;;47.60;32.50;44.80;100589;;;;544158;259;23184;-79
2022/06/23 10:05:25;;;;;;;7.53;6.35;;;47.20;32.90;44.80;100591;;;;545121;259;23213;-78
2022/06/23 10:08:19;;;;;;;8.95;4.70;;;46.80;33.20;44.80;100581;;;;544525;259;24182;-80
2022/06/23 10:11:15;;;;;;;8.02;4.80;;;46.80;33.30;44.80;100575;;;;547701;256;23164;-79
2022/06/23 10:13:54;;;;;;;9.55;4.47;;;46.90;32.80;44.50;100576;;;;544987;259;23174;-77
2022/06/23 10:16:46;;;;;;;8.50;4.95;;;46.60;33.10;43.80;100580;;;;554428;257;23139;-78
2022/06/23 10:19:49;;;;;;;17.27;5.50;;;45.10;34.50;43.10;100576;;;;544587;259;23170;-78
2022/06/23 10:22:50;;;;;;;9.43;4.70;;;45.00;34.50;42.90;100588;;;;546443;259;23152;-78
2022/06/23 10:25:30;;;;;;;13.90;5.22;;;44.50;35.60;42.50;100578;;;;544819;259;23154;-79
2022/06/23 10:28:04;;;;;;;10.88;5.10;;;44.20;35.20;42.20;100573;;;;555337;259;23150;-79
2022/06/23 10:30:46;;;;;;;5.93;4.47;;;43.70;35.70;41.80;100563;;;;545988;259;23159;-78
2022/06/23 10:33:41;;;;;;;10.43;5.00;;;43.30;36.30;40.90;100570;;;;546756;257;23166;-79
2022/06/23 10:36:30;;;;;;;6.07;4.75;;;41.70;37.40;39.60;100574;;;;546769;260;24177;-79
2022/06/23 10:39:11;;;;;;;7.10;4.82;;;39.90;39.20;37.40;100565;;;;547574;258;23213;-80
2022/06/23 10:41:51;;;;;;;11.05;4.68;;;39.80;39.10;35.80;100570;;;;547839;258;23220;-77
2022/06/23 10:44:37;;;;;;;11.43;5.10;;;37.90;41.50;34.70;100577;;;;545705;262;24234;-80
2022/06/23 10:47:11;;;;;;;10.48;4.70;;;34.40;45.70;33.30;100576;;;;547106;258;23180;-76
2022/06/23 10:49:49;;;;;;;9.13;5.05;;;34.30;45.60;32.10;100580;;;;552805;256;23196;-78
2022/06/23 10:52:44;;;;;;;8.60;4.93;;;33.00;47.60;30.80;100572;;;;546680;259;23260;-79
2022/06/23 10:55:39;;;;;;;8.07;5.28;;;31.60;49.50;29.70;100563;;;;545537;259;23207;-76
2022/06/23 10:58:16;;;;;;;14.27;5.20;;;30.30;51.60;28.50;100571;;;;544566;259;23177;-78
2022/06/23 11:00:53;;;;;;;8.97;5.17;;;29.10;53.50;27.60;100570;;;;545832;259;23198;-77
2022/06/23 11:03:27;;;;;;;8.10;4.83;;;28.10;55.80;26.70;100568;;;;555242;256;23161;-78
2022/06/23 11:06:19;;;;;;;7.73;4.67;;;27.20;57.40;26.10;100574;;;;555832;256;23179;-80
2022/06/23 11:08:53;;;;;;;6.33;4.03;;;26.60;59.30;25.50;100573;;;;555504;255;24166;-78
2022/06/23 11:11:52;;;;;;;14.77;5.07;;;26.00;61.50;25.00;100568;;;;545557;259;23171;-75
2022/06/23 11:14:26;;;;;;;11.50;5.40;;;25.50;62.30;24.50;100561;;;;542403;259;24138;-77
2022/06/23 11:17:14;;;;;;;7.30;4.60;;;25.00;64.50;24.00;100562;;;;546151;259;24134;-77
2022/06/23 11:19:48;;;;;;;12.50;5.03;;;24.60;65.70;23.60;100552;;;;544134;259;24153;-80
2022/06/23 11:22:40;;;;;;;9.07;4.67;;;24.10;67.50;23.40;100556;;;;553877;254;24191;-80
2022/06/23 11:25:24;;;;;;;9.80;5.10;;;23.90;68.90;23.10;100548;;;;544811;259;24145;-76
2022/06/23 11:28:19;;;;;;;11.87;5.10;;;23.60;70.20;22.90;100551;;;;545336;259;24159;-77
2022/06/23 11:31:17;;;;;;;13.00;4.57;;;23.40;70.70;22.70;100552;;;;549450;259;24191;-76
2022/06/23 11:33:47;;;;;;;22.07;5.37;;;23.10;72.00;22.60;100543;;;;546476;259;24160;-78
2022/06/23 11:36:39;;;;;;;27.60;6.40;;;23.00;72.70;22.50;100550;;;;546031;259;23173;-76
2022/06/23 11:39:19;;;;;;;12.00;4.60;;;22.90;73.70;22.40;100552;;;;543914;259;24177;-77
2022/06/23 11:42:30;;;;;;;6.47;4.97;;;22.70;75.50;22.30;100554;;;;544782;259;24152;-77
2022/06/23 11:45:12;;;;;;;12.87;5.10;;;22.60;75.40;22.10;100553;;;;544782;259;23193;-76
2022/06/23 11:48:14;;;;;;;14.50;5.50;;;22.50;76.40;22.00;100553;;;;545583;258;23240;-76
2022/06/23 11:50:45;;;;;;;8.13;4.87;;;22.40;77.50;21.80;100552;;;;545337;258;24129;-76
2022/06/23 11:53:43;;;;;;;11.13;5.00;;;22.30;77.40;21.70;100553;;;;537050;258;24188;-76
2022/06/23 11:56:23;;;;;;;30.93;5.50;;;22.20;78.70;21.70;100562;;;;555196;254;23163;-80
2022/06/23 11:59:31;;;;;;;9.33;4.60;;;22.10;79.80;21.70;100562;;;;544975;258;24138;-78
2022/06/23 12:02:02;;;;;;;12.40;4.70;;;22.10;80.40;21.70;100566;;;;547420;258;23196;-78
2022/06/23 12:04:51;;;;;;;10.50;4.90;;;22.10;81.30;21.70;100562;;;;544526;257;24212;-76
2022/06/23 12:07:49;;;;;;;6.60;4.97;;;22.10;81.10;21.60;100560;;;;545210;259;23190;-82